createdAt,value
2022-12-01T00:00:34.276Z,7.17
2022-12-01T00:03:05.910Z,8.47
2022-12-01T00:05:37.758Z,7.80
2022-12-01T00:08:06.467Z,9.03
2022-12-01T00:10:34.536Z,8.47
2022-12-01T00:13:05.387Z,8.03
2022-12-01T00:15:36.345Z,8.53
2022-12-01T00:18:06.480Z,7.47
2022-12-01T00:20:35.493Z,7.67
2022-12-01T00:23:04.344Z,7.80
2022-12-01T00:25:35.676Z,8.30
2022-12-01T00:28:04.774Z,8.77
2022-12-01T00:30:35.313Z,7.47
2022-12-01T00:33:08.153Z,6.63
2022-12-01T00:35:35.839Z,6.73
2022-12-01T00:38:05.354Z,7.00
2022-12-01T00:40:36.081Z,7.23
2022-12-01T00:43:05.389Z,6.70
2022-12-01T00:45:35.465Z,7.10
2022-12-01T00:48:05.107Z,6.63
2022-12-01T00:50:34.515Z,7.63
2022-12-01T00:53:03.081Z,6.20
2022-12-01T00:55:31.959Z,6.90
2022-12-01T00:58:04.530Z,6.23
2022-12-01T01:00:39.348Z,6.53
2022-12-01T01:03:11.906Z,6.33
2022-12-01T01:05:44.591Z,6.23
2022-12-01T01:08:15.817Z,5.37
2022-12-01T01:10:48.333Z,5.90
2022-12-01T01:13:19.755Z,5.60
2022-12-01T01:16:03.791Z,6.10
2022-12-01T01:18:34.554Z,5.27
2022-12-01T01:21:08.545Z,5.93
2022-12-01T01:23:46.176Z,5.77
2022-12-01T01:26:16.700Z,5.93
2022-12-01T01:28:44.634Z,5.87
2022-12-01T01:31:21.201Z,5.20
2022-12-01T01:33:55.909Z,5.17
2022-12-01T01:36:31.598Z,5.10
2022-12-01T01:39:04.181Z,5.53
2022-12-01T01:41:34.586Z,5.33
2022-12-01T01:44:04.621Z,5.77
2022-12-01T01:46:36.766Z,4.87
2022-12-01T01:49:11.212Z,6.00
2022-12-01T01:51:55.421Z,6.10
2022-12-01T01:54:30.171Z,5.87
2022-12-01T01:57:06.549Z,5.70
2022-12-01T01:59:45.055Z,6.30
2022-12-01T02:02:15.999Z,6.53
2022-12-01T02:04:52.740Z,6.17
2022-12-01T02:07:26.502Z,5.70
2022-12-01T02:09:55.656Z,6.17
2022-12-01T02:12:56.699Z,6.40
2022-12-01T02:15:34.325Z,6.27
2022-12-01T02:18:14.384Z,6.17
2022-12-01T02:21:25.556Z,6.57
2022-12-01T02:24:33.774Z,6.10
2022-12-01T02:27:12.167Z,6.27
2022-12-01T02:30:15.265Z,6.27
2022-12-01T02:32:53.314Z,6.20
2022-12-01T02:35:31.117Z,6.50
2022-12-01T02:38:15.360Z,6.97
2022-12-01T02:40:48.057Z,7.07
2022-12-01T02:43:22.657Z,7.03
2022-12-01T02:45:54.210Z,6.83
2022-12-01T02:48:28.880Z,7.00
2022-12-01T02:50:59.778Z,7.87
2022-12-01T02:53:27.932Z,7.80
2022-12-01T02:55:57.374Z,7.77
2022-12-01T02:58:25.445Z,8.10
2022-12-01T03:01:08.191Z,8.00
2022-12-01T03:03:48.788Z,8.53
2022-12-01T03:06:26.357Z,7.73
2022-12-01T03:09:04.988Z,8.17
2022-12-01T03:11:39.983Z,8.57
2022-12-01T03:14:16.549Z,7.53
2022-12-01T03:16:51.061Z,7.50
2022-12-01T03:19:28.235Z,8.07
2022-12-01T03:22:03.151Z,8.23
2022-12-01T03:24:33.049Z,8.17
2022-12-01T03:27:03.572Z,8.97
2022-12-01T03:29:36.691Z,8.73
2022-12-01T03:32:09.145Z,8.20
2022-12-01T03:34:43.447Z,8.67
2022-12-01T03:37:15.524Z,9.40
2022-12-01T03:39:44.822Z,9.43
2022-12-01T03:42:19.187Z,10.17
2022-12-01T03:44:50.594Z,11.20
2022-12-01T03:47:21.594Z,10.10
2022-12-01T03:49:53.184Z,10.87
2022-12-01T03:52:31.335Z,10.07
2022-12-01T03:55:11.971Z,11.23
2022-12-01T03:57:45.126Z,10.37
2022-12-01T04:00:15.636Z,10.27
2022-12-01T04:02:44.772Z,11.10
2022-12-01T04:05:14.178Z,9.87
2022-12-01T04:07:42.318Z,9.10
2022-12-01T04:10:10.602Z,8.83
2022-12-01T04:12:37.522Z,8.33
2022-12-01T04:15:08.016Z,9.27
2022-12-01T04:17:35.877Z,8.80
2022-12-01T04:20:04.281Z,8.97
2022-12-01T04:22:33.475Z,8.33
2022-12-01T04:25:01.123Z,9.23
2022-12-01T04:27:28.844Z,7.70
2022-12-01T04:29:56.558Z,8.73
2022-12-01T04:32:24.316Z,8.57
2022-12-01T04:34:52.182Z,7.70
2022-12-01T04:37:20.415Z,6.73
2022-12-01T04:39:49.777Z,7.93
2022-12-01T04:42:17.678Z,8.40
2022-12-01T04:44:45.482Z,7.80
2022-12-01T04:47:13.164Z,7.17
2022-12-01T04:49:41.011Z,8.20
2022-12-01T04:52:08.720Z,8.43
2022-12-01T04:54:36.439Z,8.47
2022-12-01T04:57:05.525Z,8.00
2022-12-01T04:59:33.294Z,7.80
2022-12-01T05:02:02.649Z,6.97
2022-12-01T05:04:31.188Z,8.03
2022-12-01T05:06:58.921Z,7.47
2022-12-01T05:09:26.690Z,7.13
2022-12-01T05:11:54.472Z,7.23
2022-12-01T05:14:23.640Z,7.67
2022-12-01T05:16:51.555Z,7.73
2022-12-01T05:19:36.836Z,7.23
2022-12-01T05:22:04.494Z,7.30
2022-12-01T05:24:32.365Z,6.97
2022-12-01T05:27:00.134Z,6.60
2022-12-01T05:29:29.244Z,7.73
2022-12-01T05:31:56.981Z,8.13
2022-12-01T05:34:24.944Z,7.77
2022-12-01T05:36:52.601Z,7.87
2022-12-01T05:39:20.341Z,8.17
2022-12-01T05:41:48.045Z,7.57
2022-12-01T05:44:16.838Z,8.27
2022-12-01T05:46:45.921Z,8.03
2022-12-01T05:49:13.576Z,7.80
2022-12-01T05:51:41.356Z,7.90
2022-12-01T05:54:09.026Z,7.77
2022-12-01T05:56:36.786Z,8.13
2022-12-01T05:59:04.492Z,7.73
2022-12-01T06:01:32.470Z,8.13
2022-12-01T06:04:01.738Z,8.47
2022-12-01T06:06:29.516Z,7.67
2022-12-01T06:08:57.265Z,8.27
2022-12-01T06:11:25.244Z,8.57
2022-12-01T06:13:53.080Z,8.53
2022-12-01T06:16:24.871Z,9.00
2022-12-01T06:18:55.093Z,9.03
2022-12-01T06:21:25.324Z,9.00
2022-12-01T06:23:57.341Z,8.17
2022-12-01T06:26:25.739Z,8.10
2022-12-01T06:28:55.070Z,8.47
2022-12-01T06:31:25.579Z,7.33
2022-12-01T06:33:54.250Z,9.20
2022-12-01T06:36:25.651Z,6.67
2022-12-01T06:38:55.262Z,8.10
2022-12-01T06:41:25.307Z,7.03
2022-12-01T06:43:55.456Z,7.43
2022-12-01T06:46:24.053Z,7.30
2022-12-01T06:48:55.230Z,7.47
2022-12-01T06:51:24.760Z,7.83
2022-12-01T06:53:58.642Z,7.60
2022-12-01T06:56:35.534Z,8.20
2022-12-01T06:59:05.411Z,8.27
2022-12-01T07:01:35.355Z,7.53
2022-12-01T07:04:05.474Z,7.47
2022-12-01T07:06:47.026Z,7.53
2022-12-01T07:09:15.286Z,7.50
2022-12-01T07:11:46.085Z,7.10
2022-12-01T07:14:25.217Z,7.23
2022-12-01T07:16:55.508Z,7.20
2022-12-01T07:19:26.608Z,7.40
2022-12-01T07:21:57.431Z,7.50
2022-12-01T07:24:35.542Z,7.93
2022-12-01T07:27:05.641Z,7.83
2022-12-01T07:29:33.460Z,7.70
2022-12-01T07:32:01.371Z,7.43
2022-12-01T07:34:29.050Z,7.50
2022-12-01T07:36:58.457Z,7.97
2022-12-01T07:39:26.237Z,7.90
2022-12-01T07:41:53.965Z,7.80
2022-12-01T07:44:21.655Z,7.57
2022-12-01T07:46:49.504Z,7.80
2022-12-01T07:49:19.790Z,8.10
2022-12-01T07:51:47.748Z,8.17
2022-12-01T07:54:17.676Z,7.40
2022-12-01T07:56:45.457Z,7.47
2022-12-01T07:59:13.196Z,8.07
2022-12-01T08:01:44.423Z,7.43
2022-12-01T08:04:13.167Z,8.00
2022-12-01T08:06:40.831Z,8.33
2022-12-01T08:09:08.780Z,8.53
2022-12-01T08:11:37.906Z,8.77
2022-12-01T08:14:05.845Z,8.17
2022-12-01T08:16:33.627Z,9.07
2022-12-01T08:19:01.341Z,9.70
2022-12-01T08:21:29.013Z,9.47
2022-12-01T08:23:58.296Z,9.53
2022-12-01T08:26:27.320Z,9.30
2022-12-01T08:28:57.872Z,8.83
2022-12-01T08:31:28.047Z,9.80
2022-12-01T08:33:56.676Z,10.50
2022-12-01T08:36:25.713Z,12.13
2022-12-01T08:38:55.920Z,12.57
2022-12-01T08:41:25.037Z,12.63
2022-12-01T08:44:01.826Z,13.63
2022-12-01T08:46:35.859Z,13.17
2022-12-01T08:49:07.672Z,12.13
2022-12-01T08:51:36.670Z,11.90
2022-12-01T08:54:06.260Z,13.10
2022-12-01T08:56:36.737Z,13.03
2022-12-01T08:59:11.279Z,12.53
2022-12-01T09:01:54.643Z,13.13
2022-12-01T09:04:26.702Z,13.83
2022-12-01T09:06:57.194Z,13.17
2022-12-01T09:09:30.921Z,11.77
2022-12-01T09:12:03.616Z,13.37
2022-12-01T09:14:43.443Z,12.17
2022-12-01T09:17:18.173Z,13.27
2022-12-01T09:19:47.612Z,13.60
2022-12-01T09:22:16.996Z,13.30
2022-12-01T09:24:46.467Z,13.03
2022-12-01T09:27:15.420Z,13.13
2022-12-01T09:29:48.259Z,12.33
2022-12-01T09:32:17.260Z,14.83
2022-12-01T09:34:45.704Z,13.53
2022-12-01T09:37:17.779Z,14.07
2022-12-01T09:39:45.556Z,13.20
2022-12-01T09:42:29.408Z,13.27
2022-12-01T09:45:26.508Z,12.87
2022-12-01T09:48:04.609Z,13.80
2022-12-01T09:50:41.408Z,13.17
2022-12-01T09:53:15.847Z,13.37
2022-12-01T09:55:47.349Z,14.33
2022-12-01T09:58:22.497Z,14.30
2022-12-01T10:00:55.525Z,14.47
2022-12-01T10:03:35.768Z,14.33
2022-12-01T10:06:26.765Z,14.50
2022-12-01T10:09:04.294Z,16.33
2022-12-01T10:11:45.647Z,14.97
2022-12-01T10:14:20.232Z,14.77
2022-12-01T10:17:05.481Z,15.60
2022-12-01T10:19:47.181Z,14.43
2022-12-01T10:22:54.388Z,13.10
2022-12-01T10:25:25.540Z,13.93
2022-12-01T10:28:25.351Z,14.77
2022-12-01T10:31:05.576Z,14.67
2022-12-01T10:33:56.520Z,14.40
2022-12-01T10:36:26.128Z,14.17
2022-12-01T10:38:55.945Z,14.57
2022-12-01T10:41:28.614Z,14.40
2022-12-01T10:44:06.948Z,13.77
2022-12-01T10:46:54.014Z,14.93
2022-12-01T10:49:44.724Z,14.63
2022-12-01T10:52:35.804Z,15.03
2022-12-01T10:55:26.292Z,14.70
2022-12-01T10:57:56.897Z,15.43
2022-12-01T11:00:58.443Z,15.53
2022-12-01T11:03:29.156Z,12.90
2022-12-01T11:06:00.833Z,13.33
2022-12-01T11:08:35.302Z,15.27
2022-12-01T11:11:03.882Z,13.73
2022-12-01T11:13:35.369Z,14.73
2022-12-01T11:16:05.734Z,14.70
2022-12-01T11:18:35.622Z,13.70
2022-12-01T11:21:12.083Z,14.17
2022-12-01T11:23:45.612Z,15.03
2022-12-01T11:26:17.641Z,14.33
2022-12-01T11:28:54.094Z,13.77
2022-12-01T11:31:26.997Z,13.33
2022-12-01T11:33:57.326Z,14.97
2022-12-01T11:36:35.450Z,15.17
2022-12-01T11:39:03.795Z,13.50
2022-12-01T11:41:36.573Z,13.87
2022-12-01T11:44:22.421Z,12.73
2022-12-01T11:47:07.749Z,13.80
2022-12-01T11:49:47.462Z,12.03
2022-12-01T11:52:25.340Z,12.93
2022-12-01T11:54:58.391Z,12.97
2022-12-01T11:57:34.058Z,12.27
2022-12-01T12:00:03.122Z,12.03
2022-12-01T12:02:45.871Z,12.23
2022-12-01T12:06:05.907Z,11.93
2022-12-01T12:08:59.926Z,11.93
2022-12-01T12:11:35.914Z,11.90
2022-12-01T12:14:35.143Z,11.73
2022-12-01T12:17:46.440Z,11.47
2022-12-01T12:20:35.980Z,11.60
2022-12-01T12:23:34.944Z,11.10
2022-12-01T12:26:17.454Z,12.50
2022-12-01T12:29:00.144Z,12.40
2022-12-01T12:31:35.814Z,12.07
2022-12-01T12:34:26.727Z,11.80
2022-12-01T12:37:08.302Z,11.43
2022-12-01T12:39:55.580Z,11.13
2022-12-01T12:42:44.601Z,11.37
2022-12-01T12:45:24.902Z,11.23
2022-12-01T12:48:16.908Z,10.80
2022-12-01T12:51:05.073Z,11.37
2022-12-01T12:53:47.605Z,12.27
2022-12-01T12:56:21.044Z,11.50
2022-12-01T12:58:58.450Z,12.03
2022-12-01T13:01:37.325Z,12.37
2022-12-01T13:04:15.940Z,11.90
2022-12-01T13:06:55.000Z,11.73
2022-12-01T13:09:28.629Z,10.47
2022-12-01T13:12:06.004Z,11.47
2022-12-01T13:14:45.010Z,11.03
2022-12-01T13:17:20.361Z,10.07
2022-12-01T13:19:49.311Z,11.27
2022-12-01T13:22:27.186Z,10.13
2022-12-01T13:24:56.434Z,9.03
2022-12-01T13:27:34.611Z,8.57
2022-12-01T13:30:17.418Z,9.40
2022-12-01T13:32:57.770Z,7.67
2022-12-01T13:35:34.979Z,7.97
2022-12-01T13:38:30.645Z,8.13
2022-12-01T13:41:25.255Z,8.60
2022-12-01T13:44:01.454Z,8.77
2022-12-01T13:46:38.603Z,8.50
2022-12-01T13:49:30.286Z,8.23
2022-12-01T13:52:36.834Z,7.63
2022-12-01T13:55:27.852Z,8.60
2022-12-01T13:58:45.339Z,9.10
2022-12-01T14:01:48.277Z,10.20
2022-12-01T14:04:28.782Z,9.60
2022-12-01T14:07:28.821Z,9.10
2022-12-01T14:10:08.645Z,9.37
2022-12-01T14:12:38.745Z,10.07
2022-12-01T14:15:27.581Z,10.83
2022-12-01T14:18:36.861Z,9.33
2022-12-01T14:21:07.607Z,9.80
2022-12-01T14:23:37.845Z,10.60
2022-12-01T14:26:22.176Z,9.77
2022-12-01T14:29:15.210Z,10.10
2022-12-01T14:32:26.331Z,10.73
2022-12-01T14:35:16.070Z,9.57
2022-12-01T14:38:05.037Z,10.07
2022-12-01T14:40:36.487Z,10.13
2022-12-01T14:43:34.196Z,9.53
2022-12-01T14:46:15.015Z,10.83
2022-12-01T14:48:46.885Z,9.87
2022-12-01T14:51:28.165Z,10.10
2022-12-01T14:53:58.347Z,10.17
2022-12-01T14:56:28.362Z,10.37
2022-12-01T14:59:01.621Z,9.90
2022-12-01T15:01:36.524Z,9.63
2022-12-01T15:04:08.384Z,9.50
2022-12-01T15:06:39.239Z,9.63
2022-12-01T15:09:33.483Z,9.67
2022-12-01T15:12:07.594Z,9.20
2022-12-01T15:14:38.421Z,8.73
2022-12-01T15:17:09.194Z,8.63
2022-12-01T15:19:42.278Z,8.83
2022-12-01T15:22:16.547Z,8.30
2022-12-01T15:24:47.571Z,7.63
2022-12-01T15:27:34.317Z,7.80
2022-12-01T15:30:07.909Z,7.47
2022-12-01T15:32:39.321Z,7.37
2022-12-01T15:35:26.686Z,7.67
2022-12-01T15:38:00.787Z,7.50
2022-12-01T15:43:29.743Z,8.37
2022-12-01T15:46:07.241Z,7.87
2022-12-01T15:48:37.519Z,8.03
2022-12-01T15:51:16.493Z,8.30
2022-12-01T15:53:56.528Z,8.20
2022-12-01T15:56:34.406Z,8.03
2022-12-01T15:59:17.456Z,8.10
2022-12-01T16:01:47.083Z,8.37
2022-12-01T16:04:27.679Z,7.90
2022-12-01T16:07:04.251Z,8.20
2022-12-01T16:09:57.962Z,7.53
2022-12-01T16:12:28.777Z,7.27
2022-12-01T16:15:08.246Z,8.00
2022-12-01T16:17:48.221Z,8.00
2022-12-01T16:20:36.214Z,7.80
2022-12-01T16:23:26.378Z,6.83
2022-12-01T16:26:01.619Z,6.47
2022-12-01T16:28:36.482Z,7.83
2022-12-01T16:31:11.314Z,8.73
2022-12-01T16:33:47.782Z,6.67
2022-12-01T16:36:26.570Z,7.20
2022-12-01T16:38:57.701Z,6.60
2022-12-01T16:41:45.162Z,7.20
2022-12-01T16:44:32.644Z,7.63
2022-12-01T16:47:06.831Z,7.07
2022-12-01T16:49:36.789Z,8.07
2022-12-01T16:52:36.656Z,8.00
2022-12-01T16:54:56.977Z,7.40
2022-12-01T16:57:27.151Z,7.77
2022-12-01T16:59:56.858Z,7.27
2022-12-01T17:02:26.754Z,7.73
2022-12-01T17:04:57.762Z,8.10
2022-12-01T17:07:25.792Z,8.03
2022-12-01T17:09:54.607Z,7.40
2022-12-01T17:12:29.120Z,7.77
2022-12-01T17:14:56.796Z,7.90
2022-12-01T17:17:32.420Z,7.10
2022-12-01T17:20:05.809Z,7.83
2022-12-01T17:22:37.414Z,7.60
2022-12-01T17:25:12.856Z,7.30
2022-12-01T17:27:46.968Z,7.57
2022-12-01T17:30:17.292Z,8.17
2022-12-01T17:32:47.321Z,8.47
2022-12-01T17:35:19.302Z,7.80
2022-12-01T17:37:47.232Z,7.33
2022-12-01T17:40:16.053Z,8.07
2022-12-01T17:42:55.501Z,8.07
2022-12-01T17:45:25.948Z,8.73
2022-12-01T17:48:07.828Z,8.33
2022-12-01T17:50:36.926Z,8.70
2022-12-01T17:53:07.780Z,7.47
2022-12-01T17:55:42.865Z,8.30
2022-12-01T17:58:24.843Z,7.60
2022-12-01T18:00:58.566Z,8.10
2022-12-01T18:03:29.026Z,8.20
2022-12-01T18:05:57.728Z,8.37
2022-12-01T18:08:28.279Z,8.40
2022-12-01T18:11:03.161Z,8.53
2022-12-01T18:13:39.075Z,8.17
2022-12-01T18:16:09.541Z,9.73
2022-12-01T18:18:38.805Z,9.73
2022-12-01T18:21:15.725Z,8.13
2022-12-01T18:23:54.577Z,9.07
2022-12-01T18:26:27.704Z,8.87
2022-12-01T18:28:58.985Z,9.30
2022-12-01T18:31:27.729Z,8.57
2022-12-01T18:33:59.282Z,9.23
2022-12-01T18:36:27.449Z,9.33
2022-12-01T18:38:59.269Z,9.37
2022-12-01T18:41:35.918Z,9.53
2022-12-01T18:44:06.766Z,8.90
2022-12-01T18:46:36.142Z,9.67
2022-12-01T18:49:07.428Z,8.70
2022-12-01T18:51:37.898Z,9.07
2022-12-01T18:54:14.671Z,9.07
2022-12-01T18:56:47.317Z,8.67
2022-12-01T18:59:18.475Z,9.40
2022-12-01T19:01:48.646Z,9.03
2022-12-01T19:04:17.614Z,9.93
2022-12-01T19:06:47.062Z,9.43
2022-12-01T19:09:17.752Z,8.27
2022-12-01T19:11:48.424Z,10.97
2022-12-01T19:14:20.223Z,9.07
2022-12-01T19:16:48.204Z,8.67
2022-12-01T19:19:17.397Z,8.03
2022-12-01T19:21:54.962Z,8.60
2022-12-01T19:24:27.884Z,9.53
2022-12-01T19:26:57.435Z,9.57
2022-12-01T19:29:29.095Z,9.00
2022-12-01T19:31:57.365Z,9.10
2022-12-01T19:34:28.319Z,8.37
2022-12-01T19:36:56.913Z,9.70
2022-12-01T19:39:29.500Z,8.93
2022-12-01T19:41:57.936Z,9.93
2022-12-01T19:44:28.857Z,10.00
2022-12-01T19:47:08.494Z,10.13
2022-12-01T19:49:37.900Z,10.23
2022-12-01T19:52:08.598Z,9.80
2022-12-01T19:54:43.838Z,10.60
2022-12-01T19:57:13.560Z,10.93
2022-12-01T19:59:48.523Z,11.07
2022-12-01T20:02:16.374Z,12.80
2022-12-01T20:04:46.403Z,12.60
2022-12-01T20:07:17.793Z,13.10
2022-12-01T20:09:50.167Z,13.53
2022-12-01T20:12:18.465Z,13.27
2022-12-01T20:14:47.830Z,13.57
2022-12-01T20:17:18.743Z,12.93
2022-12-01T20:19:47.725Z,14.33
2022-12-01T20:22:18.536Z,12.83
2022-12-01T20:24:47.843Z,12.67
2022-12-01T20:27:17.931Z,13.73
2022-12-01T20:29:49.795Z,13.37
2022-12-01T20:32:23.341Z,13.63
2022-12-01T20:34:52.711Z,13.47
2022-12-01T20:37:20.957Z,13.10
2022-12-01T20:39:48.747Z,13.17
2022-12-01T20:42:19.317Z,13.27
2022-12-01T20:44:47.257Z,13.63
2022-12-01T20:47:18.441Z,15.03
2022-12-01T20:49:46.505Z,14.50
2022-12-01T20:52:14.210Z,13.23
2022-12-01T20:54:42.837Z,14.00
2022-12-01T20:57:10.555Z,13.73
2022-12-01T20:59:38.414Z,14.60
2022-12-01T21:02:06.241Z,14.73
2022-12-01T21:04:35.371Z,14.30
2022-12-01T21:07:03.179Z,15.33
2022-12-01T21:09:30.954Z,14.73
2022-12-01T21:12:17.747Z,13.77
2022-12-01T21:14:48.893Z,11.63
2022-12-01T21:17:29.345Z,12.30
2022-12-01T21:20:05.575Z,10.70
2022-12-01T21:22:33.347Z,11.27
2022-12-01T21:25:07.255Z,10.80
2022-12-01T21:27:35.134Z,9.80
2022-12-01T21:30:06.693Z,9.87
2022-12-01T21:32:41.180Z,9.40
2022-12-01T21:35:19.025Z,8.40
2022-12-01T21:37:47.303Z,8.27
2022-12-01T21:40:33.747Z,8.43
2022-12-01T21:43:13.974Z,8.80
2022-12-01T21:45:41.897Z,8.80
2022-12-01T21:48:16.695Z,9.50
2022-12-01T21:50:52.288Z,9.27
2022-12-01T21:53:21.951Z,9.57
2022-12-01T21:55:50.258Z,8.77
2022-12-01T21:58:28.097Z,8.47
2022-12-01T22:00:58.971Z,8.37
2022-12-01T22:03:32.333Z,8.67
2022-12-01T22:08:53.421Z,8.43
2022-12-01T22:11:22.960Z,8.43
2022-12-01T22:13:56.006Z,7.63
2022-12-01T22:16:29.870Z,7.83
2022-12-01T22:18:59.670Z,7.80
2022-12-01T22:21:33.717Z,6.93
2022-12-01T22:24:23.509Z,7.67
2022-12-01T22:26:57.121Z,7.27
2022-12-01T22:29:29.404Z,6.93
2022-12-01T22:32:36.228Z,7.60
2022-12-01T22:35:32.992Z,6.63
2022-12-01T22:38:20.068Z,7.00
2022-12-01T22:40:59.200Z,6.90
2022-12-01T22:43:30.409Z,6.83
2022-12-01T22:46:27.548Z,6.63
2022-12-01T22:48:56.904Z,6.23
2022-12-01T22:51:36.459Z,6.57
2022-12-01T22:54:24.035Z,7.10
2022-12-01T22:57:00.035Z,7.07
2022-12-01T22:59:32.701Z,6.57
2022-12-01T23:02:02.959Z,7.37
2022-12-01T23:04:34.100Z,7.40
2022-12-01T23:07:08.049Z,7.17
2022-12-01T23:09:40.819Z,6.80
2022-12-01T23:12:29.882Z,7.00
2022-12-01T23:14:59.665Z,7.03
2022-12-01T23:17:29.164Z,6.83
2022-12-01T23:20:20.372Z,7.27
2022-12-01T23:22:48.866Z,6.90
2022-12-01T23:25:20.360Z,7.00
2022-12-01T23:27:50.426Z,7.67
2022-12-01T23:30:20.100Z,7.40
2022-12-01T23:32:53.548Z,7.97
2022-12-01T23:35:21.269Z,7.13
2022-12-01T23:37:49.400Z,7.77
2022-12-01T23:40:22.046Z,8.00
2022-12-01T23:42:50.102Z,7.53
2022-12-01T23:45:22.580Z,7.23
2022-12-01T23:47:51.968Z,7.63
2022-12-01T23:50:22.568Z,8.03
2022-12-01T23:52:50.261Z,8.73
2022-12-01T23:55:22.719Z,7.93
2022-12-01T23:57:51.204Z,7.80
